Time;durP1;ratioP1;P1;durP2;ratioP2;P2;SDS_P1;SDS_P2;PMS_P1;PMS_P2;Temp;Humidity;BMP_temperature;BMP_pressure;BME280_temperature;BME280_humidity;BME280_pressure;Samples;Min_cycle;Max_cycle;Signal;HPM_P1;HPM_P2
2021/12/06 00:01:52;;;;;;;53.02;33.15;;;19.50;76.40;;;;;;1824878;78;21220;-79
2021/12/06 00:04:25;;;;;;;45.12;32.63;;;19.60;76.00;;;;;;1827156;78;21075;-79
2021/12/06 00:06:59;;;;;;;57.43;36.93;;;19.70;75.90;;;;;;1828154;78;21077;-78
2021/12/06 00:09:30;;;;;;;62.62;35.40;;;19.70;75.80;;;;;;1830648;78;21591;-79
2021/12/06 00:12:02;;;;;;;57.55;35.70;;;19.70;75.60;;;;;;1831033;78;21614;-79
2021/12/06 00:14:37;;;;;;;54.58;35.28;;;19.70;75.50;;;;;;1830876;77;21161;-79
2021/12/06 00:17:10;;;;;;;51.60;33.40;;;19.70;75.30;;;;;;1834741;78;21621;-78
2021/12/06 00:19:42;;;;;;;48.95;32.58;;;19.70;74.90;;;;;;1830424;78;21091;-77
2021/12/06 00:22:16;;;;;;;49.10;32.53;;;19.80;74.50;;;;;;1831024;78;21150;-81
2021/12/06 00:24:47;;;;;;;49.00;30.30;;;19.90;74.10;;;;;;1831036;78;21114;-78
2021/12/06 00:27:19;;;;;;;46.53;30.62;;;19.90;73.60;;;;;;1831129;78;21154;-79
2021/12/06 00:29:50;;;;;;;46.70;32.05;;;20.00;73.40;;;;;;1822519;78;21146;-78
2021/12/06 00:32:22;;;;;;;49.70;32.05;;;20.00;73.00;;;;;;1786564;80;21133;-78
2021/12/06 00:34:53;;;;;;;49.90;32.88;;;20.10;72.70;;;;;;1747671;81;21171;-78
2021/12/06 00:37:31;;;;;;;51.92;31.45;;;20.10;73.40;;;;;;1787211;79;21098;-78
2021/12/06 00:39:58;;;;;;;51.37;32.93;;;20.10;72.60;;;;;;1757022;80;21129;-78
2021/12/06 00:42:33;;;;;;;50.05;30.48;;;20.10;72.70;;;;;;1830908;78;21174;-78
2021/12/06 00:45:06;;;;;;;45.73;29.67;;;20.20;72.00;;;;;;1831115;78;21228;-78
2021/12/06 00:47:37;;;;;;;50.28;29.75;;;20.20;71.60;;;;;;1837933;78;21630;-79
2021/12/06 00:50:09;;;;;;;44.18;28.87;;;20.20;71.10;;;;;;1832932;78;21535;-78
2021/12/06 00:52:40;;;;;;;46.33;26.85;;;20.30;71.00;;;;;;1829982;78;21098;-78
2021/12/06 00:55:12;;;;;;;43.08;26.70;;;20.30;70.50;;;;;;1841107;78;21727;-79
2021/12/06 00:57:43;;;;;;;41.75;28.00;;;20.40;70.40;;;;;;1843441;78;21122;-79
2021/12/06 01:00:16;;;;;;;46.23;28.42;;;20.40;70.30;;;;;;1843306;78;21220;-78
2021/12/06 01:02:47;;;;;;;45.83;32.40;;;20.40;70.50;;;;;;1843237;78;21149;-79
2021/12/06 01:05:18;;;;;;;41.45;29.77;;;20.50;70.40;;;;;;1831292;78;21101;-79
2021/12/06 01:07:50;;;;;;;40.75;28.40;;;20.50;70.30;;;;;;1843358;78;21223;-79
2021/12/06 01:10:24;;;;;;;43.08;28.80;;;20.50;70.20;;;;;;1843270;78;21699;-79
2021/12/06 01:12:57;;;;;;;42.20;28.50;;;20.60;69.90;;;;;;1839132;76;21189;-79
2021/12/06 01:15:29;;;;;;;43.35;28.25;;;20.60;69.50;;;;;;1842455;76;21719;-78
2021/12/06 01:18:02;;;;;;;39.95;26.93;;;20.70;69.70;;;;;;1838627;77;21650;-79
2021/12/06 01:20:40;;;;;;;41.40;28.00;;;20.70;69.50;;;;;;1842169;77;21078;-79
2021/12/06 01:23:13;;;;;;;39.70;25.82;;;20.80;69.60;;;;;;1840252;78;21165;-79
2021/12/06 01:33:39;;;;;;;41.48;27.10;;;21.00;68.50;;;;;;1840275;77;21165;-79
2021/12/06 01:40:59;;;;;;;36.75;24.32;;;21.30;67.50;;;;;;1844707;76;21609;-79
2021/12/06 01:43:30;;;;;;;36.35;25.35;;;21.30;66.80;;;;;;1843010;78;21129;-79
2021/12/06 01:46:03;;;;;;;39.50;25.95;;;21.30;66.90;;;;;;1843358;77;21479;-79
2021/12/06 01:48:34;;;;;;;41.33;26.12;;;21.30;66.90;;;;;;1843318;76;21720;-80
2021/12/06 01:51:05;;;;;;;36.95;24.25;;;21.30;66.30;;;;;;1843260;76;21664;-79
2021/12/06 01:53:36;;;;;;;43.40;24.98;;;21.40;66.50;;;;;;1843471;78;21617;-79
2021/12/06 01:56:08;;;;;;;35.38;23.85;;;21.40;66.70;;;;;;1842698;76;21707;-79
2021/12/06 01:58:40;;;;;;;35.63;22.65;;;21.50;65.90;;;;;;1844094;76;21539;-80
2021/12/06 02:01:12;;;;;;;39.23;24.30;;;21.50;65.60;;;;;;1791667;78;21550;-79
2021/12/06 02:03:44;;;;;;;40.08;23.22;;;21.50;65.00;;;;;;1787362;78;21247;-78
2021/12/06 02:06:15;;;;;;;33.38;21.77;;;21.60;64.70;;;;;;1814722;77;21578;-78
2021/12/06 02:08:46;;;;;;;34.55;21.95;;;21.60;63.90;;;;;;1830861;78;21177;-78
2021/12/06 02:11:17;;;;;;;33.05;21.25;;;21.60;63.70;;;;;;1830645;78;21607;-79
2021/12/06 02:16:29;;;;;;;33.60;20.10;;;21.70;62.60;;;;;;1831355;78;21227;-79
2021/12/06 02:19:01;;;;;;;35.43;19.57;;;21.80;61.30;;;;;;1830989;78;21079;-78
2021/12/06 02:21:30;;;;;;;33.80;19.90;;;21.80;61.40;;;;;;1830869;78;21068;-78
2021/12/06 02:24:04;;;;;;;32.45;20.95;;;21.90;61.30;;;;;;1831045;78;21630;-79
2021/12/06 02:26:35;;;;;;;30.77;20.55;;;21.90;59.60;;;;;;1832564;78;21118;-79
2021/12/06 02:29:07;;;;;;;33.23;20.68;;;21.90;60.30;;;;;;1776097;80;21229;-79
2021/12/06 02:31:38;;;;;;;29.80;19.73;;;21.90;60.40;;;;;;1751619;80;21204;-78
2021/12/06 02:34:09;;;;;;;32.17;19.73;;;21.90;59.90;;;;;;1772527;80;21192;-79
2021/12/06 02:36:42;;;;;;;29.55;18.85;;;22.00;58.90;;;;;;1773933;80;21628;-78
2021/12/06 02:39:20;;;;;;;28.73;18.57;;;22.10;58.70;;;;;;1773413;80;21266;-78
2021/12/06 02:41:46;;;;;;;30.27;18.82;;;22.10;58.50;;;;;;1777120;79;21169;-78
2021/12/06 02:44:18;;;;;;;28.62;19.45;;;22.10;59.00;;;;;;1776254;80;21891;-79
2021/12/06 02:46:49;;;;;;;30.20;19.80;;;22.20;59.20;;;;;;1813267;78;21625;-78
2021/12/06 02:49:21;;;;;;;31.60;18.52;;;22.20;59.10;;;;;;1811190;78;21637;-79
2021/12/06 02:51:53;;;;;;;25.45;17.40;;;22.30;58.10;;;;;;1814176;78;21131;-78
2021/12/06 02:54:25;;;;;;;29.60;17.45;;;22.30;58.30;;;;;;1814434;78;21546;-78
2021/12/06 02:57:18;;;;;;;29.10;17.17;;;22.30;57.60;;;;;;1842396;77;21554;-79
2021/12/06 02:59:28;;;;;;;24.85;17.40;;;22.40;57.70;;;;;;1836842;77;21142;-79
2021/12/06 03:02:02;;;;;;;28.85;17.60;;;22.50;57.00;;;;;;1840765;77;21164;-79
2021/12/06 03:04:34;;;;;;;26.45;16.62;;;22.50;57.10;;;;;;1834745;77;21700;-79
2021/12/06 03:07:07;;;;;;;26.12;16.65;;;22.60;57.10;;;;;;1837456;77;21695;-78
2021/12/06 03:09:40;;;;;;;25.57;16.00;;;22.70;56.70;;;;;;1843435;77;21170;-79
2021/12/06 03:12:14;;;;;;;25.80;15.53;;;22.70;55.70;;;;;;1848122;77;21077;-78
2021/12/06 03:14:47;;;;;;;24.57;15.08;;;22.80;54.10;;;;;;1855193;77;21066;-79
2021/12/06 03:17:20;;;;;;;23.92;15.08;;;22.90;54.70;;;;;;1855004;77;21649;-78
2021/12/06 03:19:51;;;;;;;23.83;15.55;;;22.90;54.40;;;;;;1855117;77;21227;-78
2021/12/06 03:22:23;;;;;;;23.25;13.95;;;23.00;54.30;;;;;;1857782;77;21238;-79
2021/12/06 03:24:54;;;;;;;22.52;15.15;;;23.10;53.60;;;;;;1855155;77;21207;-78
2021/12/06 03:27:25;;;;;;;21.80;14.75;;;23.20;53.90;;;;;;1847362;77;21129;-78
2021/12/06 03:29:56;;;;;;;24.98;14.83;;;23.30;53.30;;;;;;1836966;77;21124;-78
2021/12/06 03:32:27;;;;;;;17.95;13.93;;;23.30;53.20;;;;;;1848121;77;21152;-78
2021/12/06 03:34:58;;;;;;;24.12;13.18;;;23.40;53.10;;;;;;1845714;77;21078;-78
2021/12/06 03:37:29;;;;;;;21.37;13.13;;;23.50;52.40;;;;;;1852537;77;21781;-79
2021/12/06 03:40:00;;;;;;;18.80;13.60;;;23.50;51.50;;;;;;1855098;76;21229;-80
2021/12/06 03:42:31;;;;;;;26.33;13.80;;;23.50;51.00;;;;;;1855108;77;21684;-79
2021/12/06 03:45:02;;;;;;;25.43;13.35;;;23.70;50.90;;;;;;1848801;76;21231;-79
2021/12/06 03:47:33;;;;;;;29.02;13.48;;;23.80;50.30;;;;;;1851646;77;21203;-79
2021/12/06 03:50:06;;;;;;;27.20;12.05;;;23.90;50.00;;;;;;1850542;77;21592;-80
2021/12/06 03:52:37;;;;;;;20.57;13.03;;;24.00;49.40;;;;;;1855250;77;21549;-80
2021/12/06 03:55:12;;;;;;;21.77;13.70;;;24.10;49.60;;;;;;1820379;79;21112;-80
2021/12/06 03:57:43;;;;;;;21.82;13.00;;;24.20;49.50;;;;;;1855139;77;21683;-79
2021/12/06 04:00:14;;;;;;;27.62;13.68;;;24.30;49.20;;;;;;1854675;77;21187;-79
2021/12/06 04:02:46;;;;;;;19.75;12.50;;;24.40;48.50;;;;;;1855322;77;21152;-79
2021/12/06 04:05:17;;;;;;;24.32;13.13;;;24.50;48.40;;;;;;1849109;77;21113;-78
2021/12/06 04:07:48;;;;;;;27.73;13.72;;;24.60;48.40;;;;;;1825599;77;21172;-78
2021/12/06 04:10:20;;;;;;;22.82;12.85;;;24.60;48.10;;;;;;1855297;77;21179;-79
2021/12/06 04:12:50;;;;;;;24.27;13.28;;;24.80;47.00;;;;;;1852753;77;21167;-78
2021/12/06 04:15:21;;;;;;;25.23;13.53;;;24.90;47.30;;;;;;1844874;77;21132;-78
2021/12/06 04:17:52;;;;;;;23.90;13.80;;;25.00;47.10;;;;;;1851918;77;21081;-79
2021/12/06 04:20:23;;;;;;;21.42;13.98;;;25.10;47.10;;;;;;1855644;77;21648;-78
2021/12/06 04:22:55;;;;;;;25.62;13.43;;;25.10;46.70;;;;;;1858316;77;21201;-79
2021/12/06 04:25:26;;;;;;;21.52;12.63;;;25.30;46.10;;;;;;1827727;77;21183;-79
2021/12/06 04:28:03;;;;;;;19.42;12.73;;;25.30;45.70;;;;;;1838474;77;21225;-79
2021/12/06 04:30:29;;;;;;;20.50;13.00;;;25.40;45.90;;;;;;1853122;77;21809;-79
2021/12/06 04:33:01;;;;;;;18.98;12.65;;;25.50;45.70;;;;;;1853896;77;21219;-78
2021/12/06 04:35:32;;;;;;;23.98;12.50;;;25.60;44.80;;;;;;1853971;77;21490;-78
2021/12/06 04:38:04;;;;;;;19.92;12.25;;;25.70;44.50;;;;;;1857036;77;21193;-78
2021/12/06 04:40:36;;;;;;;22.10;12.55;;;25.70;45.20;;;;;;1861559;77;21756;-78
2021/12/06 04:43:08;;;;;;;20.25;12.35;;;25.80;45.40;;;;;;1856491;77;21641;-78
2021/12/06 04:45:40;;;;;;;24.32;12.47;;;25.90;45.10;;;;;;1855266;77;21244;-78
2021/12/06 04:48:11;;;;;;;24.18;13.13;;;25.90;45.00;;;;;;1855099;77;21165;-78
2021/12/06 04:50:43;;;;;;;21.33;12.37;;;25.90;45.20;;;;;;1855226;77;21063;-78
2021/12/06 04:53:16;;;;;;;21.23;13.50;;;25.90;44.60;;;;;;1849247;77;21085;-78
2021/12/06 04:55:49;;;;;;;19.92;12.65;;;26.10;44.30;;;;;;1855331;77;21669;-78
2021/12/06 04:58:22;;;;;;;20.05;12.75;;;26.20;44.90;;;;;;1835383;77;21142;-79
2021/12/06 05:00:55;;;;;;;18.73;12.90;;;26.20;44.40;;;;;;1834245;78;21148;-78
2021/12/06 05:03:28;;;;;;;17.77;12.33;;;26.20;44.10;;;;;;1841234;78;21157;-78
2021/12/06 05:06:01;;;;;;;23.47;11.95;;;26.30;44.10;;;;;;1837149;78;21589;-78
2021/12/06 05:08:35;;;;;;;21.30;12.95;;;26.30;43.80;;;;;;1837783;78;21158;-78
2021/12/06 05:11:07;;;;;;;21.80;13.20;;;26.30;44.20;;;;;;1838876;78;21134;-78
2021/12/06 05:13:40;;;;;;;22.50;13.72;;;26.40;43.40;;;;;;1837659;78;21697;-78
2021/12/06 05:16:11;;;;;;;21.10;13.22;;;26.50;42.90;;;;;;1833618;78;21636;-77
2021/12/06 05:18:43;;;;;;;21.57;12.85;;;26.60;43.40;;;;;;1836067;78;21086;-78
2021/12/06 05:21:14;;;;;;;18.75;12.95;;;26.60;43.20;;;;;;1840044;78;21568;-77
2021/12/06 05:23:45;;;;;;;22.90;11.83;;;26.70;44.20;;;;;;1839803;78;21212;-78
2021/12/06 05:26:16;;;;;;;22.25;12.13;;;26.70;42.50;;;;;;1829569;78;21613;-78
2021/12/06 05:28:48;;;;;;;19.45;12.82;;;26.80;42.80;;;;;;1834816;78;21260;-78
2021/12/06 05:31:21;;;;;;;19.82;13.00;;;26.90;42.60;;;;;;1825937;78;21128;-78
2021/12/06 05:33:59;;;;;;;17.55;11.95;;;27.00;42.20;;;;;;1832623;78;21207;-78
2021/12/06 05:36:25;;;;;;;18.80;11.30;;;27.10;41.80;;;;;;1840985;77;21579;-79
2021/12/06 05:38:57;;;;;;;17.00;11.45;;;27.10;41.90;;;;;;1839847;78;21154;-78
2021/12/06 05:41:28;;;;;;;16.48;11.35;;;27.10;40.90;;;;;;1838821;77;21180;-78
2021/12/06 05:43:59;;;;;;;17.32;11.35;;;27.20;40.60;;;;;;1842884;77;21667;-78
2021/12/06 05:46:30;;;;;;;19.25;12.15;;;27.20;41.50;;;;;;1844232;77;21701;-78
2021/12/06 05:49:01;;;;;;;20.45;11.12;;;27.20;41.00;;;;;;1838478;78;21153;-79
2021/12/06 05:51:32;;;;;;;17.52;11.55;;;27.30;40.40;;;;;;1842625;77;21168;-78
2021/12/06 05:54:03;;;;;;;16.48;11.08;;;27.20;41.20;;;;;;1841334;78;21606;-78
2021/12/06 05:56:34;;;;;;;18.70;11.80;;;27.20;40.00;;;;;;1841760;78;21189;-79
2021/12/06 05:59:05;;;;;;;16.00;10.80;;;27.20;40.90;;;;;;1842053;77;21239;-79
2021/12/06 06:01:36;;;;;;;15.98;11.68;;;27.20;41.20;;;;;;1840581;77;21619;-78
2021/12/06 06:04:08;;;;;;;21.60;12.20;;;27.20;41.20;;;;;;1842922;77;21078;-79
2021/12/06 06:06:39;;;;;;;17.02;11.33;;;27.30;41.00;;;;;;1842863;78;21082;-79
2021/12/06 06:09:10;;;;;;;18.80;11.40;;;27.30;40.70;;;;;;1843141;78;21420;-79
2021/12/06 06:11:41;;;;;;;18.65;11.40;;;27.30;40.00;;;;;;1842860;78;21200;-79
2021/12/06 06:14:12;;;;;;;18.40;10.70;;;27.20;40.30;;;;;;1843007;78;21124;-78
2021/12/06 06:16:52;;;;;;;15.65;10.38;;;27.20;41.20;;;;;;1857192;77;21643;-78
2021/12/06 06:19:17;;;;;;;15.80;10.95;;;27.10;40.50;;;;;;1868231;76;21139;-78
2021/12/06 06:21:48;;;;;;;15.23;10.95;;;27.00;40.80;;;;;;1843454;77;21537;-78
2021/12/06 06:24:20;;;;;;;21.65;13.28;;;27.00;40.40;;;;;;1851493;76;21641;-77
2021/12/06 06:26:50;;;;;;;18.95;11.15;;;27.00;41.50;;;;;;1842990;78;21134;-78
2021/12/06 06:29:21;;;;;;;16.30;10.30;;;27.00;40.90;;;;;;1826044;78;21146;-78
2021/12/06 06:31:52;;;;;;;15.23;10.25;;;27.10;40.80;;;;;;1815455;79;21161;-77
2021/12/06 06:34:23;;;;;;;17.98;10.80;;;27.10;40.20;;;;;;1841510;78;21160;-78
2021/12/06 06:36:55;;;;;;;15.60;9.75;;;27.30;40.30;;;;;;1838068;78;21662;-78
2021/12/06 06:39:27;;;;;;;17.07;10.80;;;27.30;40.10;;;;;;1838012;78;21139;-78
2021/12/06 06:41:58;;;;;;;18.12;10.58;;;27.40;40.70;;;;;;1841472;78;21218;-78
2021/12/06 06:44:29;;;;;;;18.50;10.53;;;27.40;41.30;;;;;;1842143;78;21122;-79
2021/12/06 06:47:00;;;;;;;24.37;12.88;;;27.50;40.00;;;;;;1861145;77;21085;-78
2021/12/06 06:49:31;;;;;;;17.05;11.63;;;27.50;39.80;;;;;;1846304;77;21122;-79
2021/12/06 06:52:03;;;;;;;19.50;11.10;;;27.60;39.90;;;;;;1838688;78;21148;-78
2021/12/06 06:54:34;;;;;;;17.17;11.35;;;27.60;39.60;;;;;;1838975;78;21188;-78
2021/12/06 06:57:06;;;;;;;14.53;11.00;;;27.60;40.50;;;;;;1841884;78;21224;-79
2021/12/06 06:59:37;;;;;;;17.73;11.10;;;27.70;40.00;;;;;;1830809;77;21151;-79
2021/12/06 07:02:09;;;;;;;13.40;9.85;;;27.70;40.10;;;;;;1828922;78;21637;-79
2021/12/06 07:04:41;;;;;;;19.85;11.45;;;27.70;40.10;;;;;;1826423;78;21138;-78
2021/12/06 07:07:12;;;;;;;18.50;11.78;;;27.70;38.90;;;;;;1829773;78;21230;-79
2021/12/06 07:09:43;;;;;;;15.28;11.45;;;27.60;39.60;;;;;;1828605;78;21067;-79
2021/12/06 07:12:17;;;;;;;19.48;10.65;;;27.60;40.00;;;;;;1828912;77;21550;-79
2021/12/06 07:14:47;;;;;;;17.30;11.00;;;27.60;39.90;;;;;;1829939;78;21760;-79
2021/12/06 07:17:19;;;;;;;19.80;10.80;;;27.60;40.70;;;;;;1829597;77;21138;-79
2021/12/06 07:19:50;;;;;;;17.25;11.25;;;27.60;40.50;;;;;;1829751;78;21110;-79
2021/12/06 07:22:21;;;;;;;23.47;12.10;;;27.70;40.10;;;;;;1830075;78;21115;-79
2021/12/06 07:24:51;;;;;;;20.17;10.68;;;27.60;40.00;;;;;;1829036;78;21218;-78
2021/12/06 07:27:22;;;;;;;14.38;10.65;;;27.60;40.40;;;;;;1826596;77;21527;-79
2021/12/06 07:29:53;;;;;;;18.27;10.30;;;27.60;40.20;;;;;;1829336;78;21111;-79
2021/12/06 07:32:24;;;;;;;17.70;9.95;;;27.60;40.70;;;;;;1825803;77;21955;-79
2021/12/06 07:34:55;;;;;;;17.35;9.65;;;27.50;41.20;;;;;;1829803;78;21235;-79
2021/12/06 07:37:26;;;;;;;16.52;9.83;;;27.60;41.30;;;;;;1830020;77;21154;-79
2021/12/06 07:39:57;;;;;;;17.00;9.73;;;27.60;41.20;;;;;;1830191;78;21205;-79
2021/12/06 07:42:28;;;;;;;18.27;10.18;;;27.50;41.10;;;;;;1830872;78;21394;-79
2021/12/06 07:44:59;;;;;;;17.52;10.85;;;27.50;41.30;;;;;;1830257;77;21538;-79
2021/12/06 07:47:30;;;;;;;16.17;10.15;;;27.50;41.30;;;;;;1829359;78;21641;-79
2021/12/06 07:50:00;;;;;;;19.82;11.50;;;27.50;41.10;;;;;;1821098;78;22341;-79
2021/12/06 07:52:31;;;;;;;13.08;9.90;;;27.50;40.90;;;;;;1831779;77;21154;-79
2021/12/06 07:55:03;;;;;;;16.07;10.30;;;27.50;41.40;;;;;;1831027;78;21149;-79
2021/12/06 07:57:34;;;;;;;15.03;10.40;;;27.50;42.10;;;;;;1831047;78;21110;-76
2021/12/06 08:00:08;;;;;;;14.10;10.38;;;27.40;41.50;;;;;;1851493;76;21585;-80
2021/12/06 08:02:39;;;;;;;15.10;10.45;;;27.40;41.50;;;;;;1855182;76;21166;-78
2021/12/06 08:07:45;;;;;;;17.57;10.10;;;27.40;42.20;;;;;;1852820;77;21477;-78
2021/12/06 08:10:16;;;;;;;14.35;10.55;;;27.40;42.00;;;;;;1855121;77;21165;-78
2021/12/06 08:12:47;;;;;;;15.70;10.68;;;27.30;41.90;;;;;;1852637;76;21616;-78
2021/12/06 08:15:18;;;;;;;17.73;10.88;;;27.30;42.40;;;;;;1853409;77;21574;-78
2021/12/06 08:17:49;;;;;;;17.92;10.68;;;27.30;42.30;;;;;;1853436;77;21098;-78
2021/12/06 08:20:20;;;;;;;18.37;12.33;;;27.30;42.10;;;;;;1853341;77;21086;-77
2021/12/06 08:22:51;;;;;;;17.55;11.75;;;27.30;42.30;;;;;;1853367;77;21243;-78
2021/12/06 08:25:23;;;;;;;16.50;12.78;;;27.20;42.40;;;;;;1853292;77;21146;-80
2021/12/06 08:27:54;;;;;;;19.95;13.30;;;27.20;42.00;;;;;;1854273;76;21073;-79
2021/12/06 08:30:26;;;;;;;16.52;11.65;;;27.20;42.50;;;;;;1878050;76;21161;-78
2021/12/06 08:32:59;;;;;;;19.25;11.53;;;27.10;42.50;;;;;;1849065;77;21977;-79
2021/12/06 08:35:34;;;;;;;17.85;11.22;;;27.10;43.50;;;;;;1855516;76;21642;-78
2021/12/06 08:38:06;;;;;;;15.03;10.65;;;27.10;42.50;;;;;;1855166;77;21070;-79
2021/12/06 08:40:38;;;;;;;16.15;10.58;;;27.10;42.70;;;;;;1855184;77;21070;-79
2021/12/06 08:43:16;;;;;;;18.25;12.13;;;27.10;42.80;;;;;;1855126;77;21132;-78
2021/12/06 08:45:45;;;;;;;20.85;11.93;;;27.10;43.40;;;;;;1854721;76;21191;-80
2021/12/06 08:48:16;;;;;;;21.87;12.90;;;27.10;43.00;;;;;;1855042;77;21577;-78
2021/12/06 08:50:48;;;;;;;19.65;13.58;;;27.10;43.40;;;;;;1854984;77;21129;-78
2021/12/06 08:53:19;;;;;;;17.52;13.03;;;27.00;43.20;;;;;;1852736;76;21165;-78
2021/12/06 08:55:50;;;;;;;18.02;11.60;;;27.10;43.50;;;;;;1853442;77;21122;-78
2021/12/06 08:58:22;;;;;;;18.02;11.12;;;27.00;43.20;;;;;;1855070;77;21695;-78
2021/12/06 09:00:53;;;;;;;23.98;11.40;;;27.00;43.40;;;;;;1844354;76;21110;-79
2021/12/06 09:03:24;;;;;;;18.77;11.25;;;27.00;43.30;;;;;;1843461;78;21199;-79
2021/12/06 09:05:57;;;;;;;17.65;12.30;;;27.00;43.20;;;;;;1840731;78;21224;-78
2021/12/06 09:08:29;;;;;;;18.23;11.90;;;27.00;43.20;;;;;;1821518;78;21085;-78
2021/12/06 09:11:00;;;;;;;17.98;13.85;;;27.00;43.50;;;;;;1843571;78;21754;-78
2021/12/06 09:13:31;;;;;;;19.30;12.37;;;27.00;43.50;;;;;;1842144;76;21169;-79
2021/12/06 09:16:05;;;;;;;21.48;12.47;;;26.90;43.30;;;;;;1843408;78;21542;-79
2021/12/06 09:18:39;;;;;;;18.90;11.53;;;26.90;43.60;;;;;;1842083;78;21154;-78
2021/12/06 09:21:12;;;;;;;15.18;11.22;;;26.90;43.30;;;;;;1842890;76;21189;-79
2021/12/06 09:23:44;;;;;;;21.40;11.30;;;26.90;43.30;;;;;;1843660;76;21141;-79
2021/12/06 09:26:16;;;;;;;15.03;10.78;;;26.80;43.60;;;;;;1835788;78;21209;-79
2021/12/06 09:28:47;;;;;;;18.10;10.80;;;26.80;43.30;;;;;;1842246;78;21113;-80
2021/12/06 09:31:19;;;;;;;23.10;11.10;;;26.80;43.40;;;;;;1843405;78;21173;-79
2021/12/06 09:33:50;;;;;;;17.80;11.50;;;26.80;43.90;;;;;;1751770;82;21183;-79
2021/12/06 09:36:23;;;;;;;17.32;11.68;;;26.70;43.60;;;;;;1812934;78;21172;-80
2021/12/06 09:38:54;;;;;;;20.48;12.45;;;26.70;43.90;;;;;;1813026;79;21161;-80
2021/12/06 09:41:27;;;;;;;19.07;11.33;;;26.70;43.90;;;;;;1813017;79;21219;-80
2021/12/06 09:44:01;;;;;;;18.65;11.90;;;26.70;43.80;;;;;;1813062;78;21164;-80
2021/12/06 09:46:35;;;;;;;16.73;11.35;;;26.60;44.00;;;;;;1812868;79;21140;-80
2021/12/06 09:49:07;;;;;;;20.05;11.80;;;26.60;43.90;;;;;;1824911;78;21098;-80
2021/12/06 09:51:41;;;;;;;23.07;11.68;;;26.60;43.90;;;;;;1843490;77;21538;-80
2021/12/06 09:54:13;;;;;;;16.52;11.43;;;26.50;44.10;;;;;;1838397;78;21609;-81
2021/12/06 09:56:44;;;;;;;22.45;11.95;;;26.50;44.20;;;;;;1833266;78;21180;-80
2021/12/06 09:59:18;;;;;;;23.60;12.68;;;26.40;45.30;;;;;;1832537;78;21184;-79
2021/12/06 10:01:51;;;;;;;23.22;16.70;;;26.40;44.50;;;;;;1818164;78;21190;-80
2021/12/06 10:04:25;;;;;;;26.82;16.48;;;26.40;44.80;;;;;;1801093;79;21216;-78
2021/12/06 10:06:57;;;;;;;17.17;11.75;;;26.30;44.60;;;;;;1801333;79;21240;-78
2021/12/06 10:09:28;;;;;;;18.77;12.30;;;26.30;44.60;;;;;;1801163;79;21196;-79
2021/12/06 10:12:01;;;;;;;22.42;11.68;;;26.20;44.60;;;;;;1801305;79;21149;-79
2021/12/06 10:14:33;;;;;;;25.95;12.23;;;26.20;44.90;;;;;;1801340;79;21243;-79
2021/12/06 10:17:05;;;;;;;24.70;11.53;;;26.20;45.80;;;;;;1801145;79;21185;-79
2021/12/06 10:19:37;;;;;;;20.35;11.97;;;26.20;45.40;;;;;;1827015;77;21150;-79
2021/12/06 10:22:07;;;;;;;18.65;11.68;;;26.20;45.50;;;;;;1830362;78;21134;-79
2021/12/06 10:24:38;;;;;;;21.05;12.47;;;26.10;45.50;;;;;;1831089;78;21688;-79
2021/12/06 10:27:11;;;;;;;24.95;13.83;;;26.00;45.40;;;;;;1822631;78;21174;-79
2021/12/06 10:29:46;;;;;;;24.47;15.48;;;26.00;45.40;;;;;;1829225;78;21125;-79
2021/12/06 10:32:19;;;;;;;27.30;15.20;;;26.00;45.10;;;;;;1821060;77;21130;-79
2021/12/06 10:34:53;;;;;;;21.97;13.35;;;25.90;45.30;;;;;;1825017;77;21629;-80
2021/12/06 10:37:26;;;;;;;25.77;13.93;;;25.90;45.40;;;;;;1815110;79;21221;-80
2021/12/06 10:39:57;;;;;;;24.43;12.68;;;25.90;45.50;;;;;;1825873;78;21231;-78
2021/12/06 10:42:30;;;;;;;28.65;14.20;;;25.80;45.60;;;;;;1830643;78;21142;-79
2021/12/06 10:45:03;;;;;;;19.90;12.75;;;25.80;45.80;;;;;;1829437;78;21200;-79
2021/12/06 10:47:34;;;;;;;27.98;14.83;;;25.70;46.10;;;;;;1815981;78;21154;-79
2021/12/06 10:50:07;;;;;;;21.68;13.83;;;25.70;46.30;;;;;;1829524;78;21562;-77
2021/12/06 10:52:40;;;;;;;22.85;15.03;;;25.70;46.40;;;;;;1824647;77;21196;-77
2021/12/06 10:55:11;;;;;;;26.27;15.05;;;25.60;46.70;;;;;;1829357;78;21648;-77
2021/12/06 10:57:45;;;;;;;23.83;15.43;;;25.60;47.00;;;;;;1825698;78;21220;-78
2021/12/06 11:00:18;;;;;;;31.40;16.97;;;25.50;47.00;;;;;;1830009;78;21087;-77
2021/12/06 11:02:51;;;;;;;25.72;17.48;;;25.50;47.00;;;;;;1824496;78;21118;-78
2021/12/06 11:05:25;;;;;;;31.85;18.20;;;25.50;47.10;;;;;;1830101;78;21181;-78
2021/12/06 11:07:59;;;;;;;28.98;18.02;;;25.40;47.20;;;;;;1829832;78;21151;-79
2021/12/06 11:10:29;;;;;;;25.75;17.77;;;25.40;47.40;;;;;;1828477;78;21192;-78
2021/12/06 11:13:03;;;;;;;27.73;17.30;;;25.40;47.60;;;;;;1830222;78;21098;-78
2021/12/06 11:15:35;;;;;;;26.97;17.52;;;25.30;47.70;;;;;;1825985;78;21142;-78
2021/12/06 11:18:06;;;;;;;27.00;18.17;;;25.30;47.90;;;;;;1831017;77;21759;-79
2021/12/06 11:20:39;;;;;;;33.63;19.67;;;25.30;48.10;;;;;;1829699;78;21625;-78
2021/12/06 11:23:10;;;;;;;46.00;26.37;;;25.20;48.20;;;;;;1829326;77;21492;-77
2021/12/06 11:25:43;;;;;;;39.67;24.27;;;25.20;48.30;;;;;;1830367;78;21244;-80
2021/12/06 11:28:16;;;;;;;37.15;22.45;;;25.20;48.40;;;;;;1828978;77;21118;-78
2021/12/06 11:30:50;;;;;;;37.23;21.00;;;25.20;48.50;;;;;;1817289;78;21630;-79
2021/12/06 11:33:23;;;;;;;35.08;21.60;;;25.10;48.50;;;;;;1828264;76;21185;-79
2021/12/06 11:35:53;;;;;;;37.60;21.07;;;25.10;48.50;;;;;;1828302;78;21111;-79
2021/12/06 11:38:25;;;;;;;32.80;21.33;;;25.10;48.60;;;;;;1827749;78;21189;-78
2021/12/06 11:40:58;;;;;;;38.00;22.20;;;25.10;48.80;;;;;;1825919;78;21059;-78
2021/12/06 11:43:36;;;;;;;34.20;21.40;;;25.00;48.90;;;;;;1830323;77;21144;-78
2021/12/06 11:46:17;;;;;;;41.58;22.55;;;25.00;49.00;;;;;;1811223;78;21186;-79
2021/12/06 11:48:51;;;;;;;35.43;21.65;;;25.00;49.20;;;;;;1827877;78;21220;-78
2021/12/06 11:51:27;;;;;;;33.98;22.30;;;25.00;49.40;;;;;;1829389;78;21167;-79
2021/12/06 11:53:59;;;;;;;37.45;21.57;;;24.90;49.70;;;;;;1826911;78;21228;-79
2021/12/06 11:56:32;;;;;;;31.23;21.85;;;24.90;49.90;;;;;;1829129;77;21095;-80
2021/12/06 11:59:05;;;;;;;35.40;21.75;;;24.90;50.00;;;;;;1827418;78;21762;-78
2021/12/06 12:01:38;;;;;;;29.30;19.87;;;24.80;50.10;;;;;;1828244;77;21162;-77
2021/12/06 12:04:12;;;;;;;32.00;20.60;;;24.80;50.10;;;;;;1830152;77;21177;-77
2021/12/06 12:06:46;;;;;;;37.67;21.48;;;24.80;50.20;;;;;;1829379;78;21138;-77
2021/12/06 12:09:19;;;;;;;35.70;22.85;;;24.80;50.50;;;;;;1827903;78;21134;-79
2021/12/06 12:11:59;;;;;;;39.88;24.02;;;24.80;50.50;;;;;;1829279;78;21685;-79
2021/12/06 12:14:28;;;;;;;47.25;28.32;;;24.70;50.60;;;;;;1825237;78;21554;-78
2021/12/06 12:17:03;;;;;;;45.23;27.05;;;24.70;50.80;;;;;;1806483;78;21222;-79
2021/12/06 12:19:48;;;;;;;47.93;28.23;;;24.70;50.90;;;;;;1829081;78;21146;-76
2021/12/06 12:22:43;;;;;;;54.95;32.65;;;24.60;50.90;;;;;;1804969;76;21229;-79
2021/12/06 12:25:21;;;;;;;57.90;32.78;;;24.60;51.10;;;;;;1830024;76;21134;-77
2021/12/06 12:28:24;;;;;;;56.20;31.12;;;24.60;51.30;;;;;;1824445;78;21236;-77
2021/12/06 12:30:21;;;;;;;49.80;34.03;;;24.50;51.30;;;;;;1822287;78;21079;-77
2021/12/06 12:32:53;;;;;;;65.45;34.15;;;24.50;51.90;;;;;;1831456;77;21255;-74
2021/12/06 12:35:24;;;;;;;58.00;36.25;;;24.40;51.70;;;;;;1829421;77;21110;-75
2021/12/06 12:37:55;;;;;;;65.00;41.30;;;24.40;51.70;;;;;;1830072;77;21399;-76
2021/12/06 12:40:29;;;;;;;77.22;43.73;;;24.40;52.00;;;;;;1839940;76;21208;-77
2021/12/06 12:43:02;;;;;;;60.03;38.20;;;24.30;52.20;;;;;;1830041;77;21642;-76
2021/12/06 12:45:35;;;;;;;55.35;35.40;;;24.30;52.30;;;;;;1829565;77;21218;-76
2021/12/06 12:48:07;;;;;;;54.00;32.58;;;24.30;52.40;;;;;;1828642;77;21151;-76
2021/12/06 12:50:43;;;;;;;49.90;30.37;;;24.30;52.50;;;;;;1827998;78;21213;-77
2021/12/06 12:53:14;;;;;;;43.25;29.90;;;24.20;52.40;;;;;;1829383;76;21222;-77
2021/12/06 12:55:49;;;;;;;43.85;27.48;;;24.20;52.60;;;;;;1828664;78;21150;-76
2021/12/06 12:58:22;;;;;;;45.63;25.80;;;24.20;52.70;;;;;;1829662;78;21066;-76
2021/12/06 13:00:59;;;;;;;42.85;24.52;;;24.10;52.80;;;;;;1821535;78;21198;-76
2021/12/06 13:03:30;;;;;;;40.88;23.98;;;24.10;53.00;;;;;;1757654;80;21194;-77
2021/12/06 13:06:03;;;;;;;38.83;22.82;;;24.10;53.10;;;;;;1828392;77;21197;-77
2021/12/06 13:08:36;;;;;;;35.80;22.73;;;24.00;53.10;;;;;;1828187;77;21133;-77
2021/12/06 13:11:07;;;;;;;40.00;23.45;;;23.90;53.20;;;;;;1830442;77;21574;-77